createdAt,value
2019-03-10T00:00:51.196Z,6.30
2019-03-10T00:03:24.853Z,7.43
2019-03-10T00:05:56.440Z,5.57
2019-03-10T00:08:29.149Z,3.90
2019-03-10T00:10:59.661Z,9.83
2019-03-10T00:13:30.202Z,2.33
2019-03-10T00:16:00.715Z,7.57
2019-03-10T00:18:31.254Z,9.20
2019-03-10T00:21:02.692Z,3.13
2019-03-10T00:23:33.223Z,8.30
2019-03-10T00:26:03.746Z,5.57
2019-03-10T00:28:35.525Z,8.50
2019-03-10T00:31:06.963Z,6.27
2019-03-10T00:33:37.510Z,5.37
2019-03-10T00:36:08.020Z,4.13
2019-03-10T00:38:50.786Z,6.80
2019-03-10T00:41:32.887Z,5.27
2019-03-10T00:44:29.308Z,9.40
2019-03-10T00:47:05.506Z,4.40
2019-03-10T00:50:03.949Z,4.73
2019-03-10T00:52:46.265Z,3.87
2019-03-10T00:55:16.580Z,5.17
2019-03-10T00:57:46.902Z,8.73
2019-03-10T01:00:18.535Z,5.73
2019-03-10T01:02:48.857Z,7.53
2019-03-10T01:05:20.324Z,5.70
2019-03-10T01:07:51.144Z,9.57
2019-03-10T01:10:22.306Z,7.20
2019-03-10T01:12:54.657Z,8.63
2019-03-10T01:15:24.909Z,4.90
2019-03-10T01:17:57.550Z,5.00
2019-03-10T01:20:27.982Z,2.90
2019-03-10T01:22:59.306Z,4.67
2019-03-10T01:25:30.838Z,6.77
2019-03-10T01:28:01.217Z,3.40
2019-03-10T01:30:34.734Z,7.60
2019-03-10T01:33:30.797Z,5.33
2019-03-10T01:36:01.095Z,6.20
2019-03-10T01:38:31.339Z,7.77
2019-03-10T01:41:02.770Z,9.40
2019-03-10T01:43:33.895Z,5.50
2019-03-10T01:46:04.186Z,5.77
2019-03-10T01:48:34.643Z,6.27
2019-03-10T01:51:06.108Z,4.93
2019-03-10T01:53:37.547Z,5.07
2019-03-10T01:56:08.769Z,6.03
2019-03-10T01:58:39.214Z,4.63
2019-03-10T02:01:09.468Z,5.57
2019-03-10T02:03:40.894Z,6.87
2019-03-10T02:06:12.352Z,12.33
2019-03-10T02:08:42.872Z,3.13
2019-03-10T02:11:14.331Z,6.37
2019-03-10T02:13:45.774Z,7.90
2019-03-10T02:16:16.030Z,8.70
2019-03-10T02:18:47.454Z,5.00
2019-03-10T02:21:17.989Z,8.93
2019-03-10T02:23:49.128Z,4.83
2019-03-10T02:26:19.659Z,7.47
2019-03-10T02:28:51.109Z,9.30
2019-03-10T02:31:22.582Z,16.00
2019-03-10T02:33:53.088Z,9.53
2019-03-10T02:36:24.547Z,9.20
2019-03-10T02:38:56.041Z,4.70
2019-03-10T02:41:27.462Z,7.10
2019-03-10T02:43:58.884Z,7.60
2019-03-10T02:46:31.132Z,12.37
2019-03-10T02:49:03.640Z,5.07
2019-03-10T02:51:33.895Z,5.10
2019-03-10T02:54:04.394Z,8.43
2019-03-10T02:56:34.676Z,10.30
2019-03-10T02:59:06.060Z,9.00
2019-03-10T03:01:37.840Z,4.60
2019-03-10T03:04:09.286Z,6.53
2019-03-10T03:06:41.285Z,6.20
2019-03-10T03:09:11.567Z,10.80
2019-03-10T03:11:41.820Z,9.20
2019-03-10T03:14:12.055Z,4.50
2019-03-10T03:16:43.777Z,6.43
2019-03-10T03:19:15.206Z,5.87
2019-03-10T03:21:45.461Z,8.30
2019-03-10T03:24:16.593Z,11.43
2019-03-10T03:26:48.045Z,3.47
2019-03-10T03:29:19.493Z,13.17
2019-03-10T03:31:49.735Z,6.43
2019-03-10T03:34:21.169Z,3.27
2019-03-10T03:36:52.625Z,6.13
2019-03-10T03:39:27.593Z,3.07
2019-03-10T03:41:57.982Z,6.17
2019-03-10T03:44:29.420Z,3.87
2019-03-10T03:46:59.677Z,5.10
2019-03-10T03:49:31.093Z,9.30
2019-03-10T03:52:02.566Z,8.10
2019-03-10T03:54:33.068Z,6.57
2019-03-10T03:57:04.549Z,6.43
2019-03-10T03:59:35.161Z,5.93
2019-03-10T04:02:07.234Z,3.90
2019-03-10T04:04:37.662Z,8.03
2019-03-10T04:07:08.196Z,13.70
2019-03-10T04:09:40.549Z,7.13
2019-03-10T04:12:10.814Z,6.90
2019-03-10T04:14:42.227Z,8.50
2019-03-10T04:17:13.688Z,4.53
2019-03-10T04:19:45.134Z,4.97
2019-03-10T04:22:15.386Z,8.77
2019-03-10T04:24:45.881Z,4.70
2019-03-10T04:27:17.351Z,8.50
2019-03-10T04:29:48.474Z,3.33
2019-03-10T04:32:18.725Z,7.10
2019-03-10T04:34:52.309Z,6.87
2019-03-10T04:37:23.773Z,5.30
2019-03-10T04:39:54.283Z,3.40
2019-03-10T04:42:24.548Z,5.57
2019-03-10T04:44:54.791Z,5.50
2019-03-10T04:47:26.203Z,6.23
2019-03-10T04:49:56.705Z,6.77
2019-03-10T04:52:27.030Z,7.40
2019-03-10T04:55:07.845Z,4.63
2019-03-10T04:57:39.775Z,7.97
2019-03-10T05:00:10.151Z,3.10
2019-03-10T05:02:40.733Z,3.53
2019-03-10T05:05:12.166Z,5.10
2019-03-10T05:07:43.333Z,4.47
2019-03-10T05:10:14.767Z,7.13
2019-03-10T05:12:45.041Z,5.77
2019-03-10T05:15:16.752Z,6.87
2019-03-10T05:17:50.137Z,10.07
2019-03-10T05:20:20.633Z,7.53
2019-03-10T05:22:50.827Z,2.50
2019-03-10T05:25:23.560Z,5.77
2019-03-10T05:27:54.012Z,6.63
2019-03-10T05:30:24.249Z,5.90
2019-03-10T05:32:55.692Z,5.30
2019-03-10T05:35:26.205Z,4.87
2019-03-10T05:37:57.672Z,4.97
2019-03-10T05:40:29.109Z,6.17
2019-03-10T05:43:01.496Z,5.77
2019-03-10T05:45:32.937Z,8.07
2019-03-10T05:48:03.478Z,8.03
2019-03-10T05:50:36.455Z,7.03
2019-03-10T05:53:09.160Z,6.60
2019-03-10T05:55:40.585Z,9.23
2019-03-10T05:58:10.841Z,13.03
2019-03-10T06:00:43.424Z,12.17
2019-03-10T06:03:15.271Z,12.60
2019-03-10T06:05:47.637Z,13.80
2019-03-10T06:08:18.169Z,16.93
2019-03-10T06:10:48.698Z,15.10
2019-03-10T06:13:19.220Z,18.47
2019-03-10T06:15:49.745Z,17.87
2019-03-10T06:18:21.205Z,23.50
2019-03-10T06:20:52.640Z,19.33
2019-03-10T06:23:22.904Z,23.20
2019-03-10T06:25:54.017Z,23.80
2019-03-10T06:28:25.481Z,21.13
2019-03-10T06:30:56.920Z,12.53
2019-03-10T06:33:28.374Z,14.53
2019-03-10T06:35:59.196Z,10.40
2019-03-10T06:38:30.670Z,13.65
2019-03-10T06:41:01.182Z,6.60
2019-03-10T06:43:32.652Z,8.50
2019-03-10T06:46:04.093Z,14.15
2019-03-10T06:48:35.533Z,5.45
2019-03-10T06:51:05.783Z,7.17
2019-03-10T06:53:37.208Z,13.78
2019-03-10T06:56:07.468Z,18.57
2019-03-10T06:58:38.880Z,10.13
2019-03-10T07:01:09.118Z,5.53
2019-03-10T07:03:40.553Z,10.20
2019-03-10T07:06:10.798Z,12.03
2019-03-10T07:08:41.044Z,6.55
2019-03-10T07:11:12.455Z,30.53
2019-03-10T07:13:43.000Z,15.45
2019-03-10T07:16:14.435Z,48.78
2019-03-10T07:18:45.956Z,23.65
2019-03-10T07:21:16.411Z,12.30
2019-03-10T07:23:46.660Z,8.33
2019-03-10T07:26:17.790Z,11.60
2019-03-10T07:29:04.637Z,9.37
2019-03-10T07:31:43.562Z,13.73
2019-03-10T07:34:15.600Z,15.40
2019-03-10T07:36:47.652Z,22.93
2019-03-10T07:39:34.591Z,15.53
2019-03-10T07:42:09.258Z,11.08
2019-03-10T07:44:59.433Z,23.40
2019-03-10T07:47:41.495Z,28.52
2019-03-10T07:50:22.180Z,28.57
2019-03-10T07:53:13.286Z,18.32
2019-03-10T07:55:54.158Z,18.37
2019-03-10T07:58:43.416Z,14.87
2019-03-10T08:01:17.092Z,12.68
2019-03-10T08:03:51.777Z,9.50
2019-03-10T08:06:32.078Z,9.40
2019-03-10T08:09:07.345Z,13.18
2019-03-10T08:11:42.652Z,7.85
2019-03-10T08:14:20.258Z,19.55
2019-03-10T08:16:53.378Z,9.95
2019-03-10T08:19:37.271Z,13.00
2019-03-10T08:22:18.470Z,13.03
2019-03-10T08:25:03.827Z,11.18
2019-03-10T08:27:36.679Z,8.33
2019-03-10T08:30:11.336Z,11.57
2019-03-10T08:32:57.053Z,11.18
2019-03-10T08:35:34.969Z,8.45
2019-03-10T08:38:23.441Z,7.62
2019-03-10T08:40:55.393Z,11.40
2019-03-10T08:43:30.140Z,8.68
2019-03-10T08:46:10.227Z,10.48
2019-03-10T08:48:51.018Z,14.75
2019-03-10T08:51:23.013Z,7.92
2019-03-10T08:53:55.063Z,8.63
2019-03-10T08:56:27.126Z,13.88
2019-03-10T08:59:15.279Z,11.22
2019-03-10T09:01:47.544Z,13.00
2019-03-10T09:04:34.457Z,19.17
2019-03-10T09:07:21.624Z,16.87
2019-03-10T09:10:06.926Z,11.18
2019-03-10T09:12:38.783Z,10.65
2019-03-10T09:15:27.048Z,7.17
2019-03-10T09:17:59.040Z,11.70
2019-03-10T09:20:49.889Z,10.75
2019-03-10T09:23:35.079Z,14.33
2019-03-10T09:26:08.295Z,14.98
2019-03-10T09:28:40.363Z,10.70
2019-03-10T09:31:28.876Z,17.25
2019-03-10T09:34:14.420Z,10.03
2019-03-10T09:36:48.483Z,10.55
2019-03-10T09:39:20.583Z,9.40
2019-03-10T09:42:01.760Z,11.55
2019-03-10T09:44:38.379Z,8.75
2019-03-10T09:47:26.777Z,12.20
2019-03-10T09:49:59.147Z,7.97
2019-03-10T09:52:31.328Z,5.85
2019-03-10T09:55:03.502Z,10.53
2019-03-10T09:57:46.504Z,7.58
2019-03-10T10:00:18.603Z,7.15
2019-03-10T10:02:51.103Z,3.22
2019-03-10T10:05:26.027Z,13.60
2019-03-10T10:08:04.491Z,6.15
2019-03-10T10:10:39.051Z,5.05
2019-03-10T10:13:28.413Z,11.18
2019-03-10T10:16:15.931Z,9.55
2019-03-10T10:18:48.634Z,19.73
2019-03-10T10:21:22.009Z,22.82
2019-03-10T10:24:09.531Z,23.40
2019-03-10T10:26:57.587Z,14.20
2019-03-10T10:29:32.705Z,19.20
2019-03-10T10:32:10.937Z,11.35
2019-03-10T10:34:45.980Z,16.62
2019-03-10T10:37:21.518Z,8.50
2019-03-10T10:40:11.827Z,18.48
2019-03-10T10:43:00.553Z,27.85
2019-03-10T10:45:50.388Z,16.07
2019-03-10T10:48:25.154Z,16.75
2019-03-10T10:51:10.688Z,9.83
2019-03-10T10:53:52.258Z,14.33
2019-03-10T10:56:33.737Z,16.87
2019-03-10T10:59:09.375Z,13.08
2019-03-10T11:01:46.727Z,12.63
2019-03-10T11:04:20.166Z,9.03
2019-03-10T11:06:52.219Z,15.05
2019-03-10T11:09:27.221Z,15.80
2019-03-10T11:12:06.382Z,13.50
2019-03-10T11:14:38.300Z,17.25
2019-03-10T11:17:22.330Z,10.18
2019-03-10T11:20:09.505Z,10.08
2019-03-10T11:22:45.353Z,10.82
2019-03-10T11:25:18.481Z,11.45
2019-03-10T11:27:50.523Z,16.77
2019-03-10T11:30:25.523Z,14.10
2019-03-10T11:33:13.863Z,14.33
2019-03-10T11:36:03.676Z,8.48
2019-03-10T11:38:38.546Z,12.73
2019-03-10T11:41:33.691Z,16.27
2019-03-10T11:44:18.319Z,10.32
2019-03-10T11:47:07.833Z,9.23
2019-03-10T11:49:40.798Z,12.80
2019-03-10T11:52:13.095Z,30.88
2019-03-10T11:54:57.010Z,14.85
2019-03-10T11:57:30.200Z,11.22
2019-03-10T12:00:07.929Z,9.85
2019-03-10T12:02:43.770Z,21.62
2019-03-10T12:05:20.056Z,25.88
2019-03-10T12:07:53.172Z,13.62
2019-03-10T12:10:23.605Z,16.48
2019-03-10T12:12:55.348Z,18.42
2019-03-10T12:15:25.889Z,8.58
2019-03-10T12:17:57.345Z,46.48
2019-03-10T12:20:28.794Z,23.12
2019-03-10T12:22:59.318Z,16.32
2019-03-10T12:25:30.795Z,70.42
2019-03-10T12:28:01.329Z,22.48
2019-03-10T12:30:33.054Z,16.62
2019-03-10T12:33:03.593Z,15.15
2019-03-10T12:35:34.889Z,15.03
2019-03-10T12:38:06.788Z,10.90
2019-03-10T12:40:38.244Z,14.53
2019-03-10T12:43:10.004Z,15.65
2019-03-10T12:45:41.478Z,19.00
2019-03-10T12:48:12.935Z,22.70
2019-03-10T12:50:45.018Z,11.85
2019-03-10T12:53:15.497Z,16.30
2019-03-10T12:55:46.052Z,17.00
2019-03-10T12:58:17.821Z,13.28
2019-03-10T13:00:49.860Z,47.38
2019-03-10T13:03:21.339Z,44.20
2019-03-10T13:05:55.263Z,23.25
2019-03-10T13:08:25.556Z,38.42
2019-03-10T13:10:56.357Z,18.20
2019-03-10T13:13:28.047Z,19.80
2019-03-10T13:15:59.531Z,25.57
2019-03-10T13:18:30.101Z,22.80
2019-03-10T13:21:00.572Z,14.55
2019-03-10T13:23:32.014Z,24.63
2019-03-10T13:26:03.493Z,19.98
2019-03-10T13:28:36.661Z,41.40
2019-03-10T13:31:09.182Z,17.42
2019-03-10T13:33:40.886Z,30.88
2019-03-10T13:36:11.417Z,17.90
2019-03-10T13:38:43.494Z,12.35
2019-03-10T13:41:14.096Z,13.40
2019-03-10T13:43:46.794Z,28.60
2019-03-10T13:46:17.286Z,20.27
2019-03-10T13:48:47.742Z,26.82
2019-03-10T13:51:18.290Z,19.27
2019-03-10T13:53:48.812Z,34.33
2019-03-10T13:56:20.262Z,33.58
2019-03-10T13:58:50.769Z,13.48
2019-03-10T14:01:21.349Z,58.15
2019-03-10T14:03:51.840Z,35.20
2019-03-10T14:06:23.312Z,16.67
2019-03-10T14:08:55.287Z,16.10
2019-03-10T14:11:25.614Z,16.48
2019-03-10T14:13:58.272Z,17.57
2019-03-10T14:16:28.812Z,10.80
2019-03-10T14:18:59.722Z,22.77
2019-03-10T14:21:32.356Z,33.38
2019-03-10T14:24:04.084Z,19.42
2019-03-10T14:26:34.610Z,23.10
2019-03-10T14:29:05.145Z,36.95
2019-03-10T14:31:35.675Z,27.55
2019-03-10T14:34:07.105Z,26.37
2019-03-10T14:36:37.739Z,21.73
2019-03-10T14:39:08.439Z,32.75
2019-03-10T14:41:41.786Z,31.95
2019-03-10T14:44:13.243Z,30.15
2019-03-10T14:46:46.972Z,57.83
2019-03-10T14:49:23.075Z,63.02
2019-03-10T14:51:49.422Z,24.95
2019-03-10T14:54:22.220Z,22.27
2019-03-10T14:56:52.626Z,22.02
2019-03-10T14:59:24.103Z,24.20
2019-03-10T15:01:54.632Z,35.80
2019-03-10T15:04:25.139Z,24.02
2019-03-10T15:06:56.599Z,35.77
2019-03-10T15:09:27.117Z,41.80
2019-03-10T15:11:58.571Z,52.67
2019-03-10T15:14:29.192Z,62.07
2019-03-10T15:17:02.316Z,45.00
2019-03-10T15:19:32.629Z,86.95
2019-03-10T15:22:03.144Z,42.50
2019-03-10T15:24:34.617Z,31.30
2019-03-10T15:27:05.755Z,27.65
2019-03-10T15:29:36.315Z,45.55
2019-03-10T15:32:06.821Z,71.47
2019-03-10T15:34:39.810Z,46.10
2019-03-10T15:37:11.014Z,66.70
2019-03-10T15:39:41.473Z,46.73
2019-03-10T15:42:11.993Z,25.35
2019-03-10T15:44:42.521Z,26.35
2019-03-10T15:47:13.980Z,18.75
2019-03-10T15:49:45.451Z,14.60
2019-03-10T15:52:16.888Z,15.85
2019-03-10T15:54:47.415Z,28.87
2019-03-10T15:57:17.951Z,24.13
2019-03-10T15:59:49.715Z,28.62
2019-03-10T16:02:20.238Z,21.60
2019-03-10T16:04:50.777Z,19.23
2019-03-10T16:07:21.308Z,19.25
2019-03-10T16:09:51.828Z,29.23
2019-03-10T16:12:23.291Z,39.05
2019-03-10T16:14:53.801Z,33.50
2019-03-10T16:17:26.171Z,47.15
2019-03-10T16:19:58.097Z,40.63
2019-03-10T16:22:28.459Z,45.50
2019-03-10T16:25:00.458Z,48.43
2019-03-10T16:27:31.056Z,26.52
2019-03-10T16:30:01.572Z,19.73
2019-03-10T16:32:33.952Z,39.67
2019-03-10T16:35:07.634Z,40.03
2019-03-10T16:37:39.316Z,94.97
2019-03-10T16:40:20.756Z,129.30
2019-03-10T16:42:52.083Z,36.48
2019-03-10T16:45:26.073Z,27.80
2019-03-10T16:47:57.817Z,22.80
2019-03-10T16:50:29.946Z,18.13
2019-03-10T16:53:00.319Z,32.00
2019-03-10T16:55:30.857Z,27.10
2019-03-10T16:58:02.607Z,42.40
2019-03-10T17:00:33.217Z,58.13
2019-03-10T17:03:06.865Z,47.80
2019-03-10T17:05:40.850Z,65.77
2019-03-10T17:08:16.128Z,70.97
2019-03-10T17:10:48.758Z,51.33
2019-03-10T17:13:20.221Z,41.43
2019-03-10T17:15:51.674Z,40.33
2019-03-10T17:18:22.238Z,87.90
2019-03-10T17:20:52.773Z,70.20
2019-03-10T17:23:24.225Z,114.87
2019-03-10T17:25:56.617Z,71.93
2019-03-10T17:28:30.323Z,86.97
2019-03-10T17:31:03.172Z,165.97
2019-03-10T17:33:33.878Z,36.20
2019-03-10T17:36:05.177Z,78.63
2019-03-10T17:38:36.629Z,68.07
2019-03-10T17:41:07.110Z,61.07
2019-03-10T17:43:38.111Z,45.03
2019-03-10T17:46:08.479Z,27.47
2019-03-10T17:48:39.931Z,47.40
2019-03-10T17:51:12.690Z,43.77
2019-03-10T17:53:45.455Z,55.67
2019-03-10T17:56:20.905Z,51.37
2019-03-10T17:58:55.222Z,25.87
2019-03-10T18:01:27.924Z,26.60
2019-03-10T18:04:00.478Z,21.87
2019-03-10T18:06:39.469Z,30.20
2019-03-10T18:09:23.178Z,24.57
2019-03-10T18:11:59.366Z,25.07
2019-03-10T18:14:30.858Z,21.87
2019-03-10T18:17:02.625Z,20.47
2019-03-10T18:19:33.442Z,28.73
2019-03-10T18:22:03.818Z,23.83
2019-03-10T18:24:35.266Z,48.83
2019-03-10T18:27:07.354Z,66.27
2019-03-10T18:29:37.849Z,70.83
2019-03-10T18:32:10.090Z,57.70
2019-03-10T18:34:47.041Z,61.07
2019-03-10T18:37:20.890Z,49.03
2019-03-10T18:39:51.361Z,42.50
2019-03-10T18:42:23.580Z,39.47
2019-03-10T18:44:54.585Z,39.93
2019-03-10T18:47:25.116Z,38.70
2019-03-10T18:49:57.495Z,27.20
2019-03-10T18:52:29.956Z,29.87
2019-03-10T18:55:03.001Z,20.20
2019-03-10T18:57:35.031Z,30.20
2019-03-10T19:00:10.155Z,41.00
2019-03-10T19:02:44.492Z,28.23
2019-03-10T19:05:16.783Z,45.63
2019-03-10T19:07:49.796Z,58.73
2019-03-10T19:10:21.398Z,27.53
2019-03-10T19:12:52.522Z,17.37
2019-03-10T19:15:27.756Z,9.90
2019-03-10T19:18:02.261Z,13.23
2019-03-10T19:20:37.369Z,24.77
2019-03-10T19:23:08.807Z,22.77
2019-03-10T19:25:44.059Z,15.97
2019-03-10T19:28:15.394Z,11.27
2019-03-10T19:30:45.870Z,12.87
2019-03-10T19:33:16.609Z,26.77
2019-03-10T19:35:48.618Z,24.17
2019-03-10T19:38:20.498Z,19.30
2019-03-10T19:40:53.079Z,10.70
2019-03-10T19:43:23.446Z,14.30
2019-03-10T19:45:55.218Z,7.27
2019-03-10T19:48:25.738Z,9.53
2019-03-10T19:50:56.261Z,16.10
2019-03-10T19:53:35.056Z,42.87
2019-03-10T19:56:06.247Z,50.13
2019-03-10T19:58:41.398Z,16.07
2019-03-10T20:01:11.998Z,24.20
2019-03-10T20:03:43.943Z,26.00
2019-03-10T20:06:15.670Z,55.67
2019-03-10T20:08:46.502Z,62.13
2019-03-10T20:11:17.314Z,42.47
2019-03-10T20:13:49.279Z,26.40
2019-03-10T20:16:20.790Z,42.57
2019-03-10T20:18:51.323Z,19.67
2019-03-10T20:21:21.742Z,16.97
2019-03-10T20:23:52.963Z,16.20
2019-03-10T20:26:24.353Z,20.13
2019-03-10T20:28:59.755Z,68.40
2019-03-10T20:31:32.793Z,19.30
2019-03-10T20:34:05.771Z,17.03
2019-03-10T20:36:38.432Z,19.83
2019-03-10T20:39:10.721Z,19.87
2019-03-10T20:41:42.296Z,11.83
2019-03-10T20:44:13.072Z,13.20
2019-03-10T20:46:44.949Z,18.23
2019-03-10T20:49:17.595Z,20.40
2019-03-10T20:51:49.549Z,15.73
2019-03-10T20:54:26.176Z,10.80
2019-03-10T20:57:00.489Z,19.47
2019-03-10T20:59:32.658Z,20.50
2019-03-10T21:02:05.157Z,12.93
2019-03-10T21:04:36.118Z,15.27
2019-03-10T21:07:06.581Z,15.77
2019-03-10T21:09:42.050Z,9.57
2019-03-10T21:12:20.713Z,12.23
2019-03-10T21:14:54.704Z,11.83
2019-03-10T21:17:25.744Z,11.43
2019-03-10T21:20:04.556Z,10.77
2019-03-10T21:22:37.339Z,9.70
2019-03-10T21:25:11.173Z,12.90
2019-03-10T21:27:43.427Z,13.23
2019-03-10T21:30:19.985Z,13.50
2019-03-10T21:32:51.865Z,13.47
2019-03-10T21:35:33.073Z,14.57
2019-03-10T21:38:05.657Z,15.27
2019-03-10T21:40:37.165Z,14.30
2019-03-10T21:43:07.685Z,13.60
2019-03-10T21:45:42.210Z,13.27
2019-03-10T21:48:13.250Z,15.10
2019-03-10T21:50:47.872Z,12.17
2019-03-10T21:53:21.457Z,10.67
2019-03-10T21:55:54.635Z,10.23
2019-03-10T21:58:26.602Z,14.87
2019-03-10T22:00:58.620Z,15.90
2019-03-10T22:03:31.354Z,13.70
2019-03-10T22:06:03.033Z,15.07
2019-03-10T22:08:33.806Z,10.07
2019-03-10T22:11:05.312Z,12.00
2019-03-10T22:13:46.324Z,9.80
2019-03-10T22:16:09.226Z,10.03
2019-03-10T22:18:39.731Z,9.10
2019-03-10T22:21:13.763Z,7.87
2019-03-10T22:23:45.759Z,8.97
2019-03-10T22:26:22.375Z,6.17
2019-03-10T22:28:52.891Z,8.60
2019-03-10T22:31:30.689Z,8.63
2019-03-10T22:34:07.274Z,8.07
2019-03-10T22:36:42.449Z,5.10
2019-03-10T22:39:21.291Z,8.13
2019-03-10T22:41:55.278Z,5.30
2019-03-10T22:44:26.743Z,5.33
2019-03-10T22:46:57.261Z,4.73
2019-03-10T22:49:28.831Z,6.40
2019-03-10T22:52:02.123Z,5.23
2019-03-10T22:54:33.777Z,5.57
2019-03-10T22:57:04.027Z,5.97
2019-03-10T22:59:41.559Z,4.00
2019-03-10T23:02:12.731Z,8.07
2019-03-10T23:04:44.495Z,5.40
2019-03-10T23:07:16.410Z,4.67
2019-03-10T23:09:52.755Z,6.33
2019-03-10T23:12:30.709Z,6.27
2019-03-10T23:15:12.087Z,4.07
2019-03-10T23:17:48.489Z,2.93
2019-03-10T23:20:24.382Z,2.43
2019-03-10T23:23:11.361Z,2.37
2019-03-10T23:25:51.846Z,2.90
2019-03-10T23:28:35.561Z,3.27
2019-03-10T23:31:17.874Z,3.43
2019-03-10T23:33:54.014Z,5.67
2019-03-10T23:36:24.258Z,2.30
2019-03-10T23:38:56.605Z,1.87
2019-03-10T23:41:28.986Z,1.87
2019-03-10T23:43:59.227Z,2.53
2019-03-10T23:46:30.658Z,3.37
2019-03-10T23:49:00.912Z,3.00
2019-03-10T23:51:31.409Z,2.83
2019-03-10T23:54:01.648Z,3.57
2019-03-10T23:56:32.162Z,3.20
2019-03-10T23:59:03.614Z,3.63
